createdAt,value
2023-08-23T00:00:39.384Z,20.87
2023-08-23T00:03:07.282Z,20.85
2023-08-23T00:05:35.134Z,20.83
2023-08-23T00:08:02.955Z,20.80
2023-08-23T00:10:32.149Z,20.79
2023-08-23T00:13:00.712Z,20.76
2023-08-23T00:15:28.446Z,20.68
2023-08-23T00:17:56.305Z,20.67
2023-08-23T00:20:24.070Z,20.62
2023-08-23T00:22:51.921Z,20.62
2023-08-23T00:25:19.738Z,20.60
2023-08-23T00:27:56.855Z,20.59
2023-08-23T00:30:31.382Z,20.57
2023-08-23T00:32:59.243Z,20.57
2023-08-23T00:35:27.016Z,20.56
2023-08-23T00:37:54.742Z,20.53
2023-08-23T00:40:22.525Z,20.50
2023-08-23T00:42:51.658Z,20.44
2023-08-23T00:45:19.365Z,20.47
2023-08-23T00:47:47.532Z,20.46
2023-08-23T00:50:15.432Z,20.44
2023-08-23T00:52:52.592Z,20.43
2023-08-23T00:55:21.177Z,20.41
2023-08-23T00:57:49.086Z,20.38
2023-08-23T01:00:18.757Z,20.37
2023-08-23T01:02:47.649Z,20.34
2023-08-23T01:05:15.819Z,20.31
2023-08-23T01:07:51.495Z,20.29
2023-08-23T01:10:26.043Z,20.25
2023-08-23T01:13:01.265Z,20.19
2023-08-23T01:15:31.681Z,20.20
2023-08-23T01:18:00.757Z,20.16
2023-08-23T01:20:29.377Z,20.18
2023-08-23T01:23:08.595Z,20.17
2023-08-23T01:25:36.291Z,20.16
2023-08-23T01:28:04.364Z,20.15
2023-08-23T01:30:32.668Z,20.11
2023-08-23T01:33:03.302Z,20.08
2023-08-23T01:35:39.323Z,20.07
2023-08-23T01:38:09.314Z,20.00
2023-08-23T01:40:37.621Z,20.03
2023-08-23T01:43:05.762Z,19.99
2023-08-23T01:45:33.546Z,19.96
2023-08-23T01:48:01.467Z,19.94
2023-08-23T01:50:29.334Z,19.91
2023-08-23T01:52:57.093Z,19.90
2023-08-23T01:55:26.811Z,19.77
2023-08-23T01:57:54.589Z,19.89
2023-08-23T02:00:22.419Z,19.87
2023-08-23T02:02:50.278Z,19.86
2023-08-23T02:05:18.258Z,19.84
2023-08-23T02:07:45.969Z,19.83
2023-08-23T02:10:13.999Z,19.82
2023-08-23T02:12:44.534Z,19.80
2023-08-23T02:15:12.318Z,19.79
2023-08-23T02:17:40.162Z,19.80
2023-08-23T02:20:08.943Z,19.78
2023-08-23T02:22:36.710Z,19.75
2023-08-23T02:25:04.797Z,19.73
2023-08-23T02:27:32.550Z,19.67
2023-08-23T02:30:01.699Z,19.67
2023-08-23T02:32:29.558Z,19.57
2023-08-23T02:34:57.618Z,19.66
2023-08-23T02:37:25.376Z,19.66
2023-08-23T02:39:53.186Z,19.64
2023-08-23T02:42:20.973Z,19.60
2023-08-23T02:44:48.802Z,19.56
2023-08-23T02:47:17.983Z,19.51
2023-08-23T02:49:45.878Z,19.50
2023-08-23T02:52:13.679Z,19.48
2023-08-23T02:54:41.434Z,19.47
2023-08-23T02:57:09.223Z,19.45
2023-08-23T02:59:37.011Z,19.43
2023-08-23T03:02:04.746Z,19.41
2023-08-23T03:04:33.943Z,19.37
2023-08-23T03:07:01.729Z,19.37
2023-08-23T03:09:29.479Z,19.37
2023-08-23T03:11:57.301Z,19.35
2023-08-23T03:14:25.085Z,19.34
2023-08-23T03:16:52.911Z,19.30
2023-08-23T03:19:20.681Z,19.30
2023-08-23T03:21:49.988Z,19.28
2023-08-23T03:24:17.772Z,19.23
2023-08-23T03:26:45.540Z,19.24
2023-08-23T03:29:13.241Z,19.23
2023-08-23T03:31:41.172Z,19.23
2023-08-23T03:34:09.243Z,19.20
2023-08-23T03:36:36.991Z,19.20
2023-08-23T03:39:06.222Z,19.19
2023-08-23T03:41:34.018Z,19.16
2023-08-23T03:44:01.751Z,19.15
2023-08-23T03:46:29.655Z,19.13
2023-08-23T03:48:57.449Z,19.12
2023-08-23T03:51:25.242Z,19.10
2023-08-23T03:53:52.993Z,19.09
2023-08-23T03:56:22.143Z,19.07
2023-08-23T03:58:50.488Z,19.07
2023-08-23T04:01:18.289Z,19.06
2023-08-23T04:03:46.202Z,19.03
2023-08-23T04:06:14.093Z,19.02
2023-08-23T04:08:41.850Z,18.98
2023-08-23T04:11:09.639Z,18.98
2023-08-23T04:13:38.734Z,18.96
2023-08-23T04:16:06.576Z,18.93
2023-08-23T04:18:34.336Z,18.85
2023-08-23T04:21:02.541Z,18.77
2023-08-23T04:23:30.518Z,18.78
2023-08-23T04:25:58.368Z,18.76
2023-08-23T04:28:26.224Z,18.79
2023-08-23T04:30:55.465Z,18.79
2023-08-23T04:33:23.359Z,18.77
2023-08-23T04:35:51.989Z,18.76
2023-08-23T04:38:19.742Z,18.78
2023-08-23T04:40:47.494Z,18.77
2023-08-23T04:43:15.258Z,18.78
2023-08-23T04:45:43.154Z,18.79
2023-08-23T04:48:13.253Z,18.78
2023-08-23T04:50:41.114Z,18.76
2023-08-23T04:53:08.901Z,18.77
2023-08-23T04:55:36.712Z,18.77
2023-08-23T04:58:04.460Z,18.76
2023-08-23T05:00:32.191Z,18.78
2023-08-23T05:02:59.965Z,18.76
2023-08-23T05:05:29.184Z,18.76
2023-08-23T05:07:56.992Z,18.75
2023-08-23T05:10:24.905Z,18.75
2023-08-23T05:12:53.141Z,18.75
2023-08-23T05:15:21.001Z,18.73
2023-08-23T05:17:48.925Z,18.73
2023-08-23T05:20:18.852Z,18.71
2023-08-23T05:22:48.020Z,18.67
2023-08-23T05:25:15.861Z,18.66
2023-08-23T05:27:43.657Z,18.64
2023-08-23T05:30:12.342Z,18.67
2023-08-23T05:32:40.128Z,18.69
2023-08-23T05:35:08.984Z,18.72
2023-08-23T05:37:36.723Z,18.73
2023-08-23T05:40:08.971Z,18.76
2023-08-23T05:42:36.692Z,18.79
2023-08-23T05:45:04.811Z,18.82
2023-08-23T05:47:32.606Z,18.85
2023-08-23T05:50:00.423Z,18.89
2023-08-23T05:52:28.104Z,18.94
2023-08-23T05:54:55.795Z,18.98
2023-08-23T05:57:25.099Z,19.01
2023-08-23T05:59:52.843Z,19.04
2023-08-23T06:02:20.684Z,19.06
2023-08-23T06:04:48.769Z,19.09
2023-08-23T06:07:16.824Z,19.14
2023-08-23T06:09:44.630Z,19.19
2023-08-23T06:12:12.451Z,19.24
2023-08-23T06:14:41.725Z,19.26
2023-08-23T06:17:09.567Z,19.29
2023-08-23T06:19:37.559Z,19.30
2023-08-23T06:22:05.421Z,19.34
2023-08-23T06:24:33.351Z,19.34
2023-08-23T06:27:01.210Z,19.39
2023-08-23T06:29:29.098Z,19.44
2023-08-23T06:31:58.302Z,19.47
2023-08-23T06:34:26.239Z,19.52
2023-08-23T06:36:53.980Z,19.54
2023-08-23T06:39:32.517Z,19.60
2023-08-23T06:42:00.865Z,19.64
2023-08-23T06:44:28.731Z,19.70
2023-08-23T06:46:57.888Z,19.77
2023-08-23T06:49:25.760Z,19.78
2023-08-23T06:51:53.618Z,19.87
2023-08-23T06:54:21.406Z,19.90
2023-08-23T06:56:49.255Z,19.92
2023-08-23T06:59:17.069Z,19.98
2023-08-23T07:01:44.972Z,20.00
2023-08-23T07:04:16.270Z,20.10
2023-08-23T07:06:44.328Z,20.14
2023-08-23T07:09:12.563Z,20.19
2023-08-23T07:11:40.717Z,20.20
2023-08-23T07:14:10.053Z,20.26
2023-08-23T07:16:38.018Z,20.31
2023-08-23T07:19:06.013Z,20.35
2023-08-23T07:21:35.198Z,20.38
2023-08-23T07:24:03.977Z,20.44
2023-08-23T07:26:31.855Z,20.49
2023-08-23T07:28:59.672Z,20.59
2023-08-23T07:31:27.382Z,20.61
2023-08-23T07:33:55.160Z,20.64
2023-08-23T07:36:23.099Z,20.69
2023-08-23T07:38:52.383Z,20.76
2023-08-23T07:41:20.239Z,20.81
2023-08-23T07:43:48.091Z,20.89
2023-08-23T07:46:17.659Z,20.94
2023-08-23T07:48:45.557Z,21.01
2023-08-23T07:51:13.391Z,21.08
2023-08-23T07:53:43.070Z,21.14
2023-08-23T07:56:15.476Z,21.12
2023-08-23T07:58:44.286Z,21.22
2023-08-23T08:01:12.208Z,21.27
2023-08-23T08:03:40.613Z,21.35
2023-08-23T08:06:08.956Z,21.36
2023-08-23T08:08:40.401Z,21.43
2023-08-23T08:11:08.416Z,21.47
2023-08-23T08:13:37.640Z,21.50
2023-08-23T08:16:08.903Z,21.52
2023-08-23T08:18:36.878Z,21.55
2023-08-23T08:21:05.458Z,21.59
2023-08-23T08:23:34.513Z,21.69
2023-08-23T08:26:02.753Z,21.78
2023-08-23T08:28:30.538Z,21.84
2023-08-23T08:30:59.862Z,21.91
2023-08-23T08:33:27.603Z,21.97
2023-08-23T08:35:55.423Z,22.04
2023-08-23T08:38:23.683Z,22.11
2023-08-23T08:40:52.034Z,22.18
2023-08-23T08:43:20.002Z,22.25
2023-08-23T08:45:48.179Z,22.33
2023-08-23T08:48:17.768Z,22.38
2023-08-23T08:50:46.228Z,22.44
2023-08-23T08:53:17.275Z,22.49
2023-08-23T08:55:45.542Z,22.53
2023-08-23T08:58:16.777Z,22.58
2023-08-23T09:00:45.582Z,22.67
2023-08-23T09:03:13.536Z,22.73
2023-08-23T09:05:43.111Z,22.78
2023-08-23T09:08:11.859Z,22.83
2023-08-23T09:10:39.561Z,22.86
2023-08-23T09:13:10.195Z,22.93
2023-08-23T09:15:38.218Z,22.90
2023-08-23T09:18:07.074Z,22.88
2023-08-23T09:20:35.161Z,22.92
2023-08-23T09:23:06.744Z,22.97
2023-08-23T09:25:34.612Z,23.01
2023-08-23T09:28:02.375Z,23.07
2023-08-23T09:30:30.365Z,23.10
2023-08-23T09:32:59.801Z,23.13
2023-08-23T09:35:28.514Z,23.09
2023-08-23T09:37:56.462Z,23.15
2023-08-23T09:40:27.788Z,23.19
2023-08-23T09:42:59.244Z,23.16
2023-08-23T09:45:28.522Z,23.16
2023-08-23T09:47:58.117Z,23.17
2023-08-23T09:50:27.158Z,23.20
2023-08-23T09:53:00.384Z,23.27
2023-08-23T09:55:31.159Z,23.36
2023-08-23T09:57:59.113Z,23.39
2023-08-23T10:00:28.292Z,23.44
2023-08-23T10:02:57.841Z,23.45
2023-08-23T10:05:28.210Z,23.49
2023-08-23T10:07:57.869Z,23.52
2023-08-23T10:10:26.691Z,23.60
2023-08-23T10:12:58.352Z,23.63
2023-08-23T10:15:29.559Z,23.63
2023-08-23T10:17:57.785Z,23.63
2023-08-23T10:20:25.836Z,23.68
2023-08-23T10:22:54.917Z,23.80
2023-08-23T10:25:23.398Z,23.88
2023-08-23T10:27:53.936Z,23.97
2023-08-23T10:30:27.837Z,24.03
2023-08-23T10:32:56.582Z,24.04
2023-08-23T10:35:25.599Z,24.08
2023-08-23T10:37:55.205Z,24.07
2023-08-23T10:40:23.602Z,24.08
2023-08-23T10:42:52.039Z,24.14
2023-08-23T10:45:19.974Z,24.24
2023-08-23T10:47:52.006Z,24.38
2023-08-23T10:50:21.066Z,24.48
2023-08-23T10:52:49.991Z,24.58
2023-08-23T10:55:18.226Z,24.65
2023-08-23T10:57:46.754Z,24.62
2023-08-23T11:00:15.901Z,24.53
2023-08-23T11:02:44.006Z,24.52
2023-08-23T11:05:13.302Z,24.51
2023-08-23T14:27:15.314Z,25.15
2023-08-23T14:29:43.188Z,25.39
2023-08-23T14:32:11.693Z,25.64
2023-08-23T14:34:39.516Z,25.84
2023-08-23T14:37:07.337Z,26.32
2023-08-23T14:39:34.901Z,26.07
2023-08-23T14:42:02.407Z,25.95
2023-08-23T14:44:31.343Z,25.84
2023-08-23T14:46:59.873Z,25.71
2023-08-23T14:49:27.660Z,25.66
2023-08-23T14:51:55.279Z,25.68
2023-08-23T14:54:23.155Z,25.70
2023-08-23T14:56:50.768Z,25.73
2023-08-23T14:59:18.301Z,25.75
2023-08-23T15:03:29.298Z,26.25
2023-08-23T15:05:57.360Z,26.40
2023-08-23T15:08:25.682Z,26.54
2023-08-23T15:10:57.835Z,26.69
2023-08-23T15:13:26.600Z,26.84
2023-08-23T15:15:59.106Z,26.88
2023-08-23T15:18:26.900Z,26.94
2023-08-23T15:20:56.227Z,27.02
2023-08-23T15:23:24.312Z,27.09
2023-08-23T15:25:52.140Z,27.11
2023-08-23T15:28:19.965Z,27.08
2023-08-23T15:30:47.795Z,27.04
2023-08-23T15:33:15.691Z,27.06
2023-08-23T15:35:43.552Z,27.12
2023-08-23T15:38:12.720Z,27.15
2023-08-23T15:40:40.698Z,27.17
2023-08-23T15:43:08.426Z,27.20
2023-08-23T15:45:36.259Z,27.25
2023-08-23T15:48:04.408Z,27.28
2023-08-23T15:50:32.425Z,27.25
2023-08-23T15:53:00.227Z,27.23
2023-08-23T15:55:30.819Z,27.20
2023-08-23T15:57:58.582Z,27.20
2023-08-23T16:00:26.495Z,27.29
2023-08-23T16:02:54.540Z,27.35
2023-08-23T16:05:22.399Z,27.38
2023-08-23T16:07:50.485Z,27.39
2023-08-23T16:10:18.690Z,27.39
2023-08-23T16:12:47.732Z,27.34
2023-08-23T16:15:15.457Z,27.24
2023-08-23T16:17:43.177Z,27.17
2023-08-23T16:20:32.411Z,27.08
2023-08-23T16:23:00.179Z,26.98
2023-08-23T16:25:27.972Z,26.93
2023-08-23T16:27:55.789Z,26.91
2023-08-23T16:30:23.663Z,26.86
2023-08-23T16:32:51.793Z,26.80
2023-08-23T16:35:19.911Z,26.79
2023-08-23T16:37:49.073Z,26.75
2023-08-23T16:40:16.764Z,26.73
2023-08-23T16:42:44.522Z,26.70
2023-08-23T16:45:12.558Z,26.69
2023-08-23T16:47:40.288Z,26.71
2023-08-23T16:50:09.006Z,26.76
2023-08-23T16:52:36.845Z,26.76
2023-08-23T16:55:07.334Z,26.81
2023-08-23T16:57:36.444Z,26.84
2023-08-23T17:00:07.702Z,26.84
2023-08-23T17:02:35.658Z,26.86
2023-08-23T17:05:03.764Z,26.85
2023-08-23T17:07:31.573Z,26.83
2023-08-23T17:09:59.606Z,26.85
2023-08-23T17:12:28.868Z,26.81
2023-08-23T17:14:56.621Z,26.80
2023-08-23T17:17:26.427Z,26.80
2023-08-23T17:19:54.265Z,26.79
2023-08-23T17:22:23.008Z,26.77
2023-08-23T17:24:50.842Z,26.78
2023-08-23T17:27:18.690Z,26.77
2023-08-23T17:29:47.818Z,26.73
2023-08-23T17:32:15.558Z,26.71
2023-08-23T17:34:43.577Z,26.69
2023-08-23T17:37:11.440Z,26.68
2023-08-23T17:39:39.165Z,26.63
2023-08-23T17:42:07.245Z,26.62
2023-08-23T17:44:34.968Z,26.57
2023-08-23T17:47:06.534Z,26.49
2023-08-23T17:49:34.362Z,26.44
2023-08-23T17:52:02.623Z,26.37
2023-08-23T17:54:30.446Z,26.26
2023-08-23T17:56:59.813Z,26.16
2023-08-23T17:59:29.466Z,26.05
2023-08-23T18:01:57.783Z,25.96
2023-08-23T18:04:27.378Z,25.89
2023-08-23T18:06:55.312Z,25.83
2023-08-23T18:09:23.157Z,25.77
2023-08-23T18:11:50.939Z,25.71
2023-08-23T18:14:18.696Z,25.65
2023-08-23T18:16:46.579Z,25.61
2023-08-23T18:19:14.391Z,25.54
2023-08-23T18:21:43.594Z,25.55
2023-08-23T18:24:11.423Z,25.49
2023-08-23T18:26:39.174Z,25.43
2023-08-23T18:29:06.935Z,25.39
2023-08-23T18:31:34.838Z,25.37
2023-08-23T18:34:02.652Z,25.34
2023-08-23T18:36:30.460Z,25.33
2023-08-23T18:38:59.540Z,25.32
2023-08-23T18:41:27.288Z,25.29
2023-08-23T18:43:56.449Z,25.30
2023-08-23T18:46:24.252Z,25.28
2023-08-23T18:48:52.090Z,25.22
2023-08-23T18:51:19.807Z,25.12
2023-08-23T18:53:48.225Z,25.06
2023-08-23T18:56:17.373Z,25.06
2023-08-23T18:58:45.096Z,25.04
2023-08-23T19:01:12.888Z,24.97
2023-08-23T19:03:40.819Z,24.90
2023-08-23T19:06:08.754Z,24.85
2023-08-23T19:11:02.158Z,24.80
2023-08-23T19:13:29.887Z,24.77
2023-08-23T19:15:57.726Z,24.76
2023-08-23T19:18:25.545Z,24.71
2023-08-23T19:20:53.466Z,24.69
2023-08-23T19:23:21.249Z,24.67
2023-08-23T19:25:49.000Z,24.62
2023-08-23T19:28:18.402Z,24.58
2023-08-23T19:30:46.343Z,24.59
2023-08-23T19:33:14.176Z,24.58
2023-08-23T19:35:43.072Z,24.59
2023-08-23T19:38:11.150Z,24.57
2023-08-23T19:40:39.080Z,24.56
2023-08-23T19:43:07.063Z,24.54
2023-08-23T19:45:36.354Z,24.52
2023-08-23T19:48:20.536Z,24.50
2023-08-23T19:50:52.307Z,24.47
2023-08-23T19:53:20.117Z,24.48
2023-08-23T19:55:47.935Z,24.45
2023-08-23T19:58:16.742Z,24.43
2023-08-23T20:00:45.959Z,24.39
2023-08-23T20:03:13.932Z,24.35
2023-08-23T20:05:44.445Z,24.31
2023-08-23T20:08:12.370Z,24.30
2023-08-23T20:10:40.131Z,24.26
2023-08-23T20:13:07.937Z,24.21
2023-08-23T20:15:35.775Z,24.17
2023-08-23T20:18:05.637Z,24.15
2023-08-23T20:20:35.024Z,24.13
2023-08-23T20:23:02.867Z,24.10
2023-08-23T20:25:31.272Z,24.07
2023-08-23T20:27:59.070Z,24.04
2023-08-23T20:30:26.846Z,24.02
2023-08-23T20:32:54.607Z,23.99
2023-08-23T20:35:24.506Z,23.97
2023-08-23T20:37:52.449Z,23.94
2023-08-23T20:40:21.757Z,23.90
2023-08-23T20:42:50.347Z,23.86
2023-08-23T20:45:18.229Z,23.84
2023-08-23T20:47:46.161Z,23.79
2023-08-23T20:50:14.309Z,23.79
2023-08-23T20:52:45.258Z,23.78
2023-08-23T20:55:13.073Z,23.74
2023-08-23T20:57:41.045Z,23.74
2023-08-23T21:00:11.805Z,23.71
2023-08-23T21:02:39.728Z,23.69
2023-08-23T21:05:08.086Z,23.67
2023-08-23T21:07:36.968Z,23.64
2023-08-23T21:10:06.923Z,23.58
2023-08-23T21:12:36.345Z,23.59
2023-08-23T21:15:04.276Z,23.58
2023-08-23T21:17:32.169Z,23.55
2023-08-23T21:19:59.940Z,23.55
2023-08-23T21:22:27.758Z,23.53
2023-08-23T21:24:55.469Z,23.49
2023-08-23T21:27:24.709Z,23.50
2023-08-23T21:29:52.586Z,23.46
2023-08-23T21:32:20.396Z,23.45
2023-08-23T21:34:48.150Z,23.43
2023-08-23T21:37:15.938Z,23.38
2023-08-23T21:39:44.879Z,23.39
2023-08-23T21:42:12.687Z,23.36
2023-08-23T21:44:43.573Z,23.32
2023-08-23T21:47:12.746Z,23.27
2023-08-23T21:49:40.534Z,23.26
2023-08-23T21:52:08.327Z,23.23
2023-08-23T21:54:36.154Z,23.18
2023-08-23T21:57:04.460Z,23.18
2023-08-23T21:59:32.278Z,23.16
2023-08-23T22:02:01.349Z,23.12
2023-08-23T22:04:29.125Z,23.09
2023-08-23T22:06:56.966Z,23.07
2023-08-23T22:09:24.726Z,23.04
2023-08-23T22:11:53.086Z,23.01
2023-08-23T22:14:20.883Z,22.98
2023-08-23T22:16:48.634Z,22.96
2023-08-23T22:19:17.752Z,22.93
2023-08-23T22:21:45.464Z,22.91
2023-08-23T22:24:13.239Z,22.90
2023-08-23T22:26:40.952Z,22.86
2023-08-23T22:29:08.680Z,22.84
2023-08-23T22:31:36.555Z,22.78
2023-08-23T22:34:04.389Z,22.80
2023-08-23T22:36:33.591Z,22.78
2023-08-23T22:39:01.273Z,22.76
2023-08-23T22:41:28.988Z,22.75
2023-08-23T22:43:56.872Z,22.72
2023-08-23T22:46:32.209Z,22.71
2023-08-23T22:49:00.334Z,22.68
2023-08-23T22:51:28.142Z,22.64
2023-08-23T22:53:57.660Z,22.62
2023-08-23T22:56:25.479Z,22.58
2023-08-23T22:58:53.203Z,22.57
2023-08-23T23:01:20.961Z,22.55
2023-08-23T23:03:48.956Z,22.53
2023-08-23T23:06:16.798Z,22.51
2023-08-23T23:08:45.093Z,22.50
2023-08-23T23:11:14.269Z,22.47
2023-08-23T23:13:41.959Z,22.43
2023-08-23T23:16:09.774Z,22.38
2023-08-23T23:18:37.653Z,22.37
2023-08-23T23:21:07.066Z,22.35
2023-08-23T23:23:35.055Z,22.33
2023-08-23T23:26:02.911Z,22.30
2023-08-23T23:28:32.072Z,22.24
2023-08-23T23:31:06.511Z,22.25
2023-08-23T23:33:34.444Z,22.23
2023-08-23T23:36:02.240Z,22.22
2023-08-23T23:38:30.598Z,22.22
2023-08-23T23:40:58.374Z,22.20
2023-08-23T23:43:26.121Z,22.19
2023-08-23T23:45:55.236Z,22.19
2023-08-23T23:48:23.009Z,22.18
2023-08-23T23:50:50.799Z,22.15
2023-08-23T23:53:18.815Z,22.12
2023-08-23T23:55:46.715Z,22.12
2023-08-23T23:58:14.496Z,22.08
